No particular awareness of the weather is required.    There are no Weather-warnings


Meteo18 Weather Cam more information Meteo18 Weather Cam


Thunder radar more information blitzortung!


Rain radar more information rain snow radar


Visit our other weather sites:

Template documentation
and downloads

And another site



Weather Underground History page Text

Daily Summary for May 21, 2017 Units:  Metric    English   Both
« Previous Day
Next Day »
Daily Weekly Monthly Yearly Custom
  High: Low: Average:
Temperature: -17.8 °C -14.4 °C -9.9 °C
Dew Point: -17.8 °C -14.8 °C -12.8 °C
Humidity: Humidity % 47 % 73 %
Wind Speed: 0 km/h 0 km/h 6.1 km/h
Wind Gust: 0 km/h - -
Wind:- - ENE
Pressure: 0 hPa 34520.3 hPa -
Precipitation: 7.62 mm    
Historical Graphs
 
 
Tabular Data for May 21, 2017
Time Temperature Dew Point Pressure Wind Wind Speed Wind Gust Humidity Rainfall Rate (Hourly)
-17.8 °C -17.8 °C 0 hPa Calm     Humidity % 0 mm
00:02 -12.9 °C -13.3 °C 34760.7 hPa Calm     95 % 0 mm
00:07 -12.9 °C -13.3 °C 34760.7 hPa WNW 2.6 km/h   95 % 0 mm
00:12 -12.9 °C -13.4 °C 34760.7 hPa Calm     95 % 0 mm
00:17 -12.9 °C -13.4 °C 34760.7 hPa Calm   5.1 km/h 95 % 0 mm
00:22 -13 °C -13.4 °C 34760.7 hPa Calm   5.1 km/h 95 % 0 mm
00:27 -13 °C -13.3 °C 34760.7 hPa Calm   5.1 km/h 96 % 0 mm
00:37 -12.9 °C -13.3 °C 34760.7 hPa NNE 2.6 km/h 2.6 km/h 96 % 0 mm
00:42 -13 °C -13.3 °C 34760.7 hPa Calm   5.1 km/h 96 % 0 mm
00:52 -13.2 °C -13.6 °C 34760.7 hPa Calm   5.1 km/h 95 % 0 mm
01:02 -13.3 °C -13.7 °C 34760.7 hPa Calm   2.6 km/h 96 % 0 mm
01:12 -13.4 °C -13.7 °C 34760.7 hPa Calm   2.6 km/h 96 % 0 mm
01:17 -13.4 °C -13.7 °C 34774.2 hPa Calm   2.6 km/h 96 % 0 mm
01:22 -13.4 °C -13.7 °C 34774.2 hPa Calm   2.6 km/h 96 % 0 mm
01:32 -13.4 °C -13.7 °C 34760.7 hPa Calm   2.6 km/h 96 % 0 mm
01:42 -13.4 °C -13.8 °C 34760.7 hPa Calm     96 % 7.62 mm
01:52 -13.5 °C -13.8 °C 34760.7 hPa Calm     96 % 7.62 mm
01:57 -13.6 °C -13.9 °C 34760.7 hPa Calm     96 % 7.62 mm
02:02 -13.6 °C -13.9 °C 34760.7 hPa Calm     96 % 7.62 mm
02:07 -13.6 °C -13.9 °C 34760.7 hPa Calm     96 % 7.62 mm
02:12 -13.7 °C -14 °C 34760.7 hPa Calm     96 % 7.62 mm
02:17 -13.7 °C -14 °C 34760.7 hPa Calm     96 % 7.62 mm
02:22 -13.6 °C -13.9 °C 34760.7 hPa Calm     96 % 7.62 mm
02:32 -13.7 °C -13.9 °C 34760.7 hPa Calm     97 % 7.62 mm
02:37 -13.6 °C -13.8 °C 34760.7 hPa Calm     97 % 7.62 mm
02:42 -13.6 °C -13.9 °C 34760.7 hPa Calm     96 % 0 mm
02:52 -13.7 °C -14.1 °C 34750.5 hPa Calm     96 % 0 mm
03:02 -13.8 °C -14.2 °C 34750.5 hPa Calm     96 % 0 mm
03:12 -13.8 °C -14.1 °C 34750.5 hPa Calm     97 % 0 mm
03:17 -13.8 °C -14 °C 34750.5 hPa Calm     97 % 0 mm
03:22 -13.8 °C -14 °C 34750.5 hPa Calm     97 % 0 mm
03:27 -13.7 °C -13.9 °C 34750.5 hPa Calm     97 % 0 mm
03:32 -13.7 °C -13.9 °C 34750.5 hPa Calm     97 % 0 mm
03:42 -13.9 °C -14.2 °C 34750.5 hPa Calm   2.6 km/h 96 % 0 mm
03:52 -14.1 °C -14.4 °C 34750.5 hPa ENE 2.6 km/h 2.6 km/h 96 % 0 mm
04:02 -14.1 °C -14.4 °C 34750.5 hPa Calm   7.7 km/h 96 % 0 mm
04:12 -14.2 °C -14.6 °C 34750.5 hPa Calm   5.1 km/h 96 % 0 mm
04:17 -14.1 °C -14.3 °C 34750.5 hPa Calm   2.6 km/h 97 % 0 mm
04:22 -14.1 °C -14.3 °C 34750.5 hPa Calm   2.6 km/h 97 % 0 mm
04:32 -14.3 °C -14.7 °C 34750.5 hPa Calm     96 % 0 mm
04:42 -14.3 °C -14.5 °C 34750.5 hPa Calm     97 % 0 mm
04:47 -14.3 °C -14.5 °C 34750.5 hPa Calm     97 % 0 mm
04:52 -14.3 °C -14.5 °C 34750.5 hPa Calm     97 % 0 mm
05:02 -14.3 °C -14.6 °C 34750.5 hPa Calm     97 % 0 mm
05:12 -14.4 °C -14.8 °C 34750.5 hPa Calm     96 % 0 mm
05:17 -14.3 °C -14.6 °C 34740.4 hPa Calm     97 % 0 mm
05:22 -14.3 °C -14.5 °C 34740.4 hPa Calm     97 % 0 mm
05:32 -14.4 °C -14.6 °C 34740.4 hPa Calm     97 % 0 mm
05:42 -14.4 °C -14.7 °C 34750.5 hPa Calm     97 % 0 mm
05:52 -14.4 °C -14.7 °C 34750.5 hPa Calm     97 % 0 mm
05:57 -14.4 °C -14.7 °C 34750.5 hPa Calm     97 % 0 mm
06:02 -14.4 °C -14.7 °C 34750.5 hPa Calm     97 % 0 mm
06:07 -14.4 °C -14.6 °C 34750.5 hPa Calm     97 % 0 mm
06:12 -14.4 °C -14.6 °C 34750.5 hPa Calm     97 % 0 mm
06:17 -14.3 °C -14.6 °C 34750.5 hPa Calm     97 % 0 mm
06:22 -14.3 °C -14.6 °C 34750.5 hPa Calm     97 % 0 mm
06:32 -14.3 °C -14.6 °C 34750.5 hPa Calm     97 % 0 mm
06:42 -14.2 °C -14.4 °C 34750.5 hPa Calm     97 % 0 mm
06:47 -14.2 °C -14.6 °C 34750.5 hPa North 2.6 km/h   96 % 0 mm
06:52 -14.1 °C -14.3 °C 34750.5 hPa Calm     97 % 0 mm
06:57 -14 °C -14.3 °C 34750.5 hPa Calm   2.6 km/h 96 % 0 mm
07:02 -13.8 °C -14.2 °C 34750.5 hPa Calm   2.6 km/h 96 % 0 mm
07:12 -13.6 °C -13.9 °C 34750.5 hPa Calm     96 % 0 mm
07:17 -13.2 °C -13.4 °C 34750.5 hPa Calm     97 % 0 mm
07:22 -13.1 °C -13.4 °C 34750.5 hPa Calm     96 % 0 mm
07:32 -12.8 °C -13.2 °C 34760.7 hPa Calm     96 % 0 mm
07:37 -12.7 °C -13.1 °C 34760.7 hPa Calm   2.6 km/h 96 % 0 mm
07:42 -12.7 °C -13 °C 34760.7 hPa Calm   2.6 km/h 96 % 0 mm
07:47 -12.5 °C -12.8 °C 34760.7 hPa Calm   2.6 km/h 96 % 0 mm
07:52 -12.3 °C -12.6 °C 34760.7 hPa Calm   2.6 km/h 97 % 0 mm
08:02 -11.7 °C -12 °C 34750.5 hPa Calm     97 % 0 mm
08:12 -11.6 °C -12.1 °C 34750.5 hPa Calm     95 % 0 mm
08:17 -11.6 °C -12.1 °C 34750.5 hPa Calm     95 % 0 mm
08:22 -11.4 °C -11.9 °C 34750.5 hPa Calm     95 % 0 mm
08:32 -11.3 °C -11.9 °C 34750.5 hPa Calm     93 % 0 mm
08:42 -11.2 °C -11.9 °C 34750.5 hPa Calm     91 % 0 mm
08:47 -11 °C -12 °C 34750.5 hPa Calm     89 % 0 mm
08:52 -10.9 °C -12.1 °C 34750.5 hPa Calm     87 % 0 mm
09:02 -10.7 °C -11.9 °C 34760.7 hPa Calm   5.1 km/h 87 % 0 mm
09:12 -10.4 °C -11.8 °C 34760.7 hPa Calm   7.7 km/h 85 % 0 mm
09:17 -10.4 °C -11.8 °C 34760.7 hPa NE 5.1 km/h 7.7 km/h 85 % 0 mm
09:22 -10.3 °C -11.7 °C 34760.7 hPa NE 5.1 km/h 7.7 km/h 85 % 0 mm
09:32 -10.1 °C -11.6 °C 34760.7 hPa ESE 2.6 km/h 7.7 km/h 84 % 0 mm
09:42 -9.9 °C -11.5 °C 34760.7 hPa ENE 7.7 km/h 10.3 km/h 83 % 0 mm
09:52 -9.8 °C -11.6 °C 34750.5 hPa NE 10.3 km/h 10.3 km/h 81 % 0 mm
09:57 -9.7 °C -11.7 °C 34750.5 hPa ENE 10.3 km/h 15.6 km/h 79 % 0 mm
10:02 -9.6 °C -11.4 °C 34750.5 hPa ENE 10.3 km/h 15.6 km/h 81 % 0 mm
10:12 -9.5 °C -11.5 °C 34750.5 hPa ENE 5.1 km/h 15.6 km/h 79 % 0 mm
10:17 -9.4 °C -11.9 °C 34750.5 hPa East 7.7 km/h 15.6 km/h 75 % 0 mm
10:22 -9.3 °C -11.7 °C 34750.5 hPa NE 5.1 km/h 15.6 km/h 76 % 0 mm
10:32 -9.3 °C -11.7 °C 34750.5 hPa NNE 7.7 km/h 18.2 km/h 75 % 0 mm
10:42 -9.1 °C -11.3 °C 34740.4 hPa ESE 15.6 km/h 20.8 km/h 77 % 0 mm
10:47 -9 °C -11.3 °C 34740.4 hPa ENE 20.8 km/h 20.8 km/h 76 % 0 mm
10:52 -9.1 °C -11.6 °C 34740.4 hPa NNE 12.9 km/h 18.2 km/h 74 % 0 mm
11:02 -8.8 °C -11.5 °C 34740.4 hPa ENE 15.6 km/h 20.8 km/h 73 % 0 mm
11:12 -8.7 °C -11.7 °C 34740.4 hPa ENE 5.1 km/h 18.2 km/h 71 % 0 mm
11:17 -8.7 °C -11.7 °C 34740.4 hPa NNE 10.3 km/h 18.2 km/h 70 % 0 mm
11:22 -8.6 °C -11.8 °C 34740.4 hPa NE 7.7 km/h 18.2 km/h 69 % 0 mm
11:32 -8.4 °C -12.4 °C 34740.4 hPa ENE 12.9 km/h 23.3 km/h 63 % 0 mm
11:42 -8.2 °C -12 °C 34726.8 hPa NE 5.1 km/h 23.3 km/h 64 % 0 mm
11:47 -8.1 °C -11.7 °C 34726.8 hPa ENE 5.1 km/h 18.2 km/h 66 % 0 mm
11:52 -8.1 °C -11.9 °C 34726.8 hPa ENE 15.6 km/h 18.2 km/h 64 % 0 mm
12:02 -8.1 °C -11.9 °C 34726.8 hPa ENE 7.7 km/h 23.3 km/h 64 % 0 mm
12:12 -8 °C -12.1 °C 34726.8 hPa East 15.6 km/h 28.5 km/h 62 % 0 mm
12:17 -7.9 °C -12.1 °C 34726.8 hPa East 10.3 km/h 28.5 km/h 62 % 0 mm
12:22 -8.1 °C -12.6 °C 34726.8 hPa ENE 5.1 km/h 28.5 km/h 59 % 0 mm
12:32 -7.9 °C -12.3 °C 34716.7 hPa NNE 7.7 km/h 28.5 km/h 60 % 0 mm
12:37 -7.9 °C -12.3 °C 34716.7 hPa ENE 5.1 km/h 28.5 km/h 60 % 0 mm
12:42 -7.9 °C -12.4 °C 34716.7 hPa NE 10.3 km/h 28.5 km/h 59 % 0 mm
12:47 -7.8 °C -12.7 °C 34716.7 hPa ENE 10.3 km/h 20.8 km/h 56 % 0 mm
12:52 -7.7 °C -12.8 °C 34716.7 hPa ENE 2.6 km/h 20.8 km/h 55 % 0 mm
13:02 -7.6 °C -12.7 °C 34703.1 hPa ENE 7.7 km/h 25.9 km/h 55 % 0 mm
13:12 -7.4 °C -12.8 °C 34703.1 hPa ENE 10.3 km/h 28.5 km/h 53 % 0 mm
13:17 -7.3 °C -13.2 °C 34703.1 hPa ENE 20.8 km/h 28.5 km/h 50 % 0 mm
13:22 -7.4 °C -13.1 °C 34703.1 hPa NE 12.9 km/h 28.5 km/h 51 % 0 mm
13:32 -7.2 °C -13.1 °C 34693 hPa East 7.7 km/h 28.5 km/h 50 % 0 mm
13:37 -7.1 °C -13.1 °C 34693 hPa ENE 15.6 km/h 15.6 km/h 50 % 0 mm
13:42 -7.1 °C -13.4 °C 34693 hPa NE 23.3 km/h 23.3 km/h 48 % 0 mm
13:52 -7.2 °C -13.6 °C 34693 hPa East 12.9 km/h 33.6 km/h 47 % 0 mm
14:02 -7.1 °C -12.9 °C 34682.8 hPa ESE 7.7 km/h 33.6 km/h 51 % 0 mm
14:12 -6.9 °C -13 °C 34682.8 hPa East 5.1 km/h 28.5 km/h 49 % 0 mm
14:22 -6.9 °C -12.9 °C 34682.8 hPa ENE 12.9 km/h 23.3 km/h 50 % 0 mm
14:27 -6.8 °C -12.9 °C 34682.8 hPa NE 18.2 km/h 33.6 km/h 49 % 0 mm
14:32 -6.7 °C -12.4 °C 34669.3 hPa ESE 5.1 km/h 33.6 km/h 51 % 0 mm
14:42 -6.6 °C -12.7 °C 34669.3 hPa East 12.9 km/h 23.3 km/h 49 % 0 mm
14:47 -6.7 °C -13 °C 34669.3 hPa East 7.7 km/h 23.3 km/h 48 % 0 mm
14:52 -6.7 °C -12.6 °C 34659.1 hPa East 12.9 km/h 23.3 km/h 50 % 0 mm
15:02 -6.6 °C -12.4 °C 34659.1 hPa East 18.2 km/h 23.3 km/h 51 % 0 mm
15:12 -6.5 °C -12.5 °C 34659.1 hPa ENE 18.2 km/h 25.9 km/h 50 % 0 mm
15:17 -6.6 °C -12.6 °C 34659.1 hPa ENE 28.5 km/h 33.6 km/h 50 % 0 mm
15:22 -6.7 °C -12.9 °C 34659.1 hPa ENE 7.7 km/h 33.6 km/h 48 % 0 mm
15:32 -6.5 °C -11.7 °C 34659.1 hPa ENE 12.9 km/h 33.6 km/h 55 % 0 mm
15:42 -6.8 °C -12.6 °C 34645.6 hPa NNE 18.2 km/h 25.9 km/h 51 % 0 mm
15:47 -6.7 °C -12.7 °C 34645.6 hPa NE 15.6 km/h 36.2 km/h 50 % 0 mm
15:52 -6.7 °C -12.5 °C 34645.6 hPa NE 7.7 km/h 36.2 km/h 51 % 0 mm
15:57 -6.6 °C -12.6 °C 34645.6 hPa ENE 2.6 km/h 28.5 km/h 50 % 0 mm
16:02 -6.5 °C -12.5 °C 34645.6 hPa ENE 7.7 km/h 28.5 km/h 50 % 0 mm
16:12 -6.6 °C -12.6 °C 34635.4 hPa East 7.7 km/h 23.3 km/h 50 % 0 mm
16:17 -6.5 °C -12.7 °C 34635.4 hPa East 2.6 km/h 28.5 km/h 49 % 0 mm
16:22 -6.5 °C -12.3 °C 34635.4 hPa ENE 15.6 km/h 28.5 km/h 51 % 0 mm
16:32 -6.6 °C -12.4 °C 34625.2 hPa East 12.9 km/h 23.3 km/h 51 % 0 mm
16:37 -6.5 °C -12.7 °C 34625.2 hPa ENE 10.3 km/h 25.9 km/h 49 % 0 mm
16:42 -6.6 °C -12.4 °C 34625.2 hPa NE 18.2 km/h 25.9 km/h 51 % 0 mm
16:47 -6.5 °C -12.3 °C 34611.7 hPa NE 15.6 km/h 23.3 km/h 51 % 0 mm
16:52 -6.6 °C -12.6 °C 34611.7 hPa ENE 5.1 km/h 23.3 km/h 50 % 0 mm
16:57 -6.6 °C -12.4 °C 34611.7 hPa East 5.1 km/h 25.9 km/h 51 % 0 mm
17:02 -6.4 °C -12.1 °C 34611.7 hPa East 20.8 km/h 25.9 km/h 52 % 0 mm
17:07 -6.5 °C -12.7 °C 34611.7 hPa NNE 15.6 km/h 25.9 km/h 49 % 0 mm
17:12 -6.5 °C -12.5 °C 34601.5 hPa NE 20.8 km/h 25.9 km/h 50 % 0 mm
17:17 -6.4 °C -12.1 °C 34611.7 hPa ENE 10.3 km/h 25.9 km/h 52 % 0 mm
17:22 -6.5 °C -12.5 °C 34611.7 hPa ENE 7.7 km/h 25.9 km/h 50 % 0 mm
17:32 -6.4 °C -12.6 °C 34601.5 hPa ESE 7.7 km/h 23.3 km/h 49 % 0 mm
17:37 -6.4 °C -12.4 °C 34601.5 hPa NNE 12.9 km/h 20.8 km/h 50 % 0 mm
17:42 -6.4 °C -12.6 °C 34591.4 hPa NE 28.5 km/h 33.6 km/h 49 % 0 mm
17:47 -6.4 °C -12.4 °C 34591.4 hPa ENE 15.6 km/h 33.6 km/h 50 % 0 mm
17:52 -6.4 °C -12.9 °C 34591.4 hPa ENE 15.6 km/h 33.6 km/h 47 % 0 mm
18:02 -6.3 °C -12.2 °C 34591.4 hPa ENE 2.6 km/h 31.1 km/h 51 % 0 mm
18:07 -6.3 °C -11.9 °C 34591.4 hPa East 7.7 km/h 25.9 km/h 52 % 0 mm
18:12 -6.3 °C -12.3 °C 34591.4 hPa ENE 18.2 km/h 25.9 km/h 50 % 0 mm
18:17 -6.3 °C -12.8 °C 34591.4 hPa ENE 2.6 km/h 23.3 km/h 47 % 0 mm
18:22 -6.3 °C -12.7 °C 34577.8 hPa NE 7.7 km/h 28.5 km/h 48 % 0 mm
18:27 -6.3 °C -12.3 °C 34577.8 hPa ENE 20.8 km/h 28.5 km/h 50 % 0 mm
18:32 -6.4 °C -12.6 °C 34577.8 hPa East 5.1 km/h 31.1 km/h 49 % 0 mm
18:37 -6.4 °C -12.2 °C 34577.8 hPa ENE 15.6 km/h 31.1 km/h 51 % 0 mm
18:42 -6.4 °C -12.1 °C 34577.8 hPa NE 10.3 km/h 31.1 km/h 52 % 0 mm
18:52 -6.3 °C -11.8 °C 34577.8 hPa East 10.3 km/h 20.8 km/h 53 % 0 mm
19:02 -6.4 °C -12.3 °C 34567.7 hPa ESE 12.9 km/h 20.8 km/h 51 % 0 mm
19:07 -6.4 °C -11.9 °C 34567.7 hPa East 7.7 km/h 20.8 km/h 53 % 0 mm
19:12 -6.5 °C -11.8 °C 34567.7 hPa ENE 10.3 km/h 20.8 km/h 54 % 0 mm
19:17 -6.5 °C -12.3 °C 34567.7 hPa East 10.3 km/h 25.9 km/h 51 % 0 mm
19:22 -6.6 °C -12.4 °C 34567.7 hPa ENE 15.6 km/h 25.9 km/h 51 % 0 mm
19:32 -6.6 °C -11.9 °C 34554.1 hPa East 5.1 km/h 28.5 km/h 54 % 0 mm
19:37 -6.6 °C -11.8 °C 34554.1 hPa ENE 5.1 km/h 18.2 km/h 55 % 0 mm
19:42 -6.7 °C -11.7 °C 34554.1 hPa ENE 10.3 km/h 18.2 km/h 56 % 0 mm
19:47 -6.8 °C -11.7 °C 34554.1 hPa ENE 10.3 km/h 15.6 km/h 57 % 0 mm
19:52 -6.8 °C -11.8 °C 34554.1 hPa ENE 10.3 km/h 15.6 km/h 56 % 0 mm
19:57 -6.9 °C -11.6 °C 34554.1 hPa ENE 5.1 km/h 15.6 km/h 58 % 0 mm
20:02 -6.9 °C -11.5 °C 34554.1 hPa ENE 5.1 km/h 15.6 km/h 59 % 0 mm
20:12 -7.1 °C -11.4 °C 34554.1 hPa ENE 5.1 km/h 12.9 km/h 61 % 0 mm
20:17 -7.3 °C -11.4 °C 34554.1 hPa East 5.1 km/h 10.3 km/h 62 % 0 mm
20:22 -7.3 °C -11.2 °C 34554.1 hPa ENE 7.7 km/h 10.3 km/h 64 % 0 mm
20:32 -7.6 °C -11.4 °C 34554.1 hPa ENE 2.6 km/h 7.7 km/h 64 % 0 mm
20:42 -7.7 °C -11.4 °C 34544 hPa ENE 5.1 km/h 7.7 km/h 65 % 0 mm
20:47 -7.8 °C -11.4 °C 34544 hPa ENE 2.6 km/h 7.7 km/h 66 % 0 mm
20:52 -7.9 °C -11.6 °C 34544 hPa ENE 2.6 km/h 7.7 km/h 65 % 0 mm
21:02 -7.9 °C -11.9 °C 34544 hPa NE 5.1 km/h 7.7 km/h 63 % 0 mm
21:12 -8 °C -11.9 °C 34544 hPa NNE 5.1 km/h 7.7 km/h 63 % 0 mm
21:17 -8 °C -12.1 °C 34544 hPa NE 5.1 km/h 7.7 km/h 62 % 0 mm
21:22 -8.1 °C -12.1 °C 34544 hPa NE 5.1 km/h 7.7 km/h 63 % 0 mm
21:32 -8.3 °C -11.8 °C 34544 hPa NE 5.1 km/h 10.3 km/h 66 % 0 mm
21:37 -8.4 °C -11.9 °C 34544 hPa NE 5.1 km/h 12.9 km/h 66 % 0 mm
21:42 -8.5 °C -11.9 °C 34544 hPa NE 7.7 km/h 12.9 km/h 67 % 0 mm
21:47 -8.6 °C -11.9 °C 34533.8 hPa NE 5.1 km/h 12.9 km/h 68 % 0 mm
21:57 -8.7 °C -11.9 °C 34544 hPa NE 5.1 km/h 10.3 km/h 69 % 0 mm
22:07 -8.9 °C -12 °C 34533.8 hPa NE 5.1 km/h 10.3 km/h 70 % 0 mm
22:12 -8.9 °C -12 °C 34544 hPa NE 5.1 km/h 10.3 km/h 70 % 0 mm
22:17 -8.9 °C -12 °C 34533.8 hPa NNE 7.7 km/h 10.3 km/h 70 % 0 mm
22:22 -8.9 °C -12.1 °C 34533.8 hPa NE 7.7 km/h 10.3 km/h 69 % 0 mm
22:32 -9.1 °C -12.1 °C 34533.8 hPa NE 10.3 km/h 12.9 km/h 70 % 0 mm
22:42 -9.2 °C -12.2 °C 34533.8 hPa NE 7.7 km/h 12.9 km/h 70 % 0 mm
22:47 -9.3 °C -12.2 °C 34533.8 hPa NE 7.7 km/h 15.6 km/h 71 % 0 mm
22:52 -9.4 °C -12.2 °C 34533.8 hPa NE 7.7 km/h 15.6 km/h 72 % 0 mm
22:57 -9.6 °C -12.2 °C 34520.3 hPa ENE 7.7 km/h 15.6 km/h 73 % 0 mm
23:02 -9.6 °C -12.2 °C 34520.3 hPa NE 10.3 km/h 15.6 km/h 73 % 0 mm
23:12 -9.6 °C -12.2 °C 34520.3 hPa ENE 7.7 km/h 15.6 km/h 73 % 0 mm
23:17 -9.6 °C -12.2 °C 34520.3 hPa ENE 7.7 km/h 15.6 km/h 73 % 0 mm
23:22 -9.7 °C -12.2 °C 34520.3 hPa ENE 5.1 km/h 15.6 km/h 74 % 0 mm
23:27 -9.8 °C -12.2 °C 34520.3 hPa East 5.1 km/h 12.9 km/h 75 % 0 mm
23:32 -9.8 °C -12.3 °C 34520.3 hPa ENE 2.6 km/h 12.9 km/h 75 % 0 mm
23:37 -9.9 °C -12.3 °C 34520.3 hPa East 5.1 km/h 10.3 km/h 75 % 0 mm
23:42 -9.9 °C -12.3 °C 34520.3 hPa ENE 2.6 km/h 10.3 km/h 75 % 0 mm
23:52 -9.7 °C -12.4 °C 34520.3 hPa ENE 7.7 km/h 7.7 km/h 73 % 0 mm
23:57 -9.8 °C -12.4 °C 34520.3 hPa ENE 7.7 km/h 10.3 km/h 73 % 0 mm
Meteo18
Compliments of Weather Underground - 4 mb

Script developed by  Jim McMurry - jmcmurry@mwt.net Adapted for the template by  Wim van der Kuil - Leuven-Template.eu

You find our weather info also at:

European Weather Network

Weather Underground

Equipment we use:

Weather-station
Davis Vue

Weather-program
Meteobridge

Weather-server
Raspberry PI 2 B+

Provider
1 and 1

Davis Vue

Meteobridge

Raspberry PI 2 B+

1 and 1